Glasgow, KY

11:41 PM CST on November 24, 2017 (GMT -0600)
Glasgow Municipal

Weather History for KGLW - January, 2013

Change the Weather History Date:

Wednesday, January 30, 2013

  Actual Average Record
Temperature  
Mean Temperature 52 °F -  
Max Temperature 70 °F 44 °F 70 °F (2013)
Min Temperature 32 °F 27 °F -13 °F (1966)
Degree Days  
Heating Degree Days 14    
Growing Degree Days 2 (Base 50)    
Moisture  
Dew Point 36 °F    
Average Humidity 57    
Maximum Humidity 94    
Minimum Humidity 33    
Precipitation  
Precipitation 0.79 in - - ()
Sea Level Pressure  
Sea Level Pressure 29.56 in    
Wind  
Wind Speed 14 mph (SW)    
Max Wind Speed 24 mph    
Max Gust Speed 38 mph    
Visibility 9 miles    
Events Rain    
Averages and records for this station are not official NWS values.
T = Trace of Precipitation, MM = Missing Value Source: NWS Daily Summary

Daily Weather History Graph

Daily Weather History Graph

Search for Another Location

Airport or City:

Trip Planner

Search our weather history database for the weather conditions in past years. The results will help you decide how hot, cold, wet, or windy it might be!

Date:

Astronomy

Jan. 30, 2013 Rise Set
Actual Time 6:47 AM CST 5:06 PM CST
Civil Twilight 6:20 AM CST 5:34 PM CST
Nautical Twilight 5:49 AM CST 6:05 PM CST
Astronomical Twilight 5:18 AM CST 6:36 PM CST
Moon 8:57 PM CST (1/30) 8:21 AM CST (1/30)
Length of Visible Light 11h 14m
Length of Day
10h 19m
Waning Gibbous, 87% of the Moon is Illuminated
Jan 30
Waning Gibbous
Feb 3
Last Quarter
Feb 10
New
Feb 17
First Quarter
Feb 25
Full

Hourly Weather History & Observations

Time (CST) Temp. Windchill Dew Point Humidity Pressure Visibility Wind Dir Wind Speed Gust Speed Precip Events Conditions
12:15 AM 67.8 °F - 41.4 °F 38% 29.60 in 10.0 mi South 17.3 mph 25.3 mph N/A   Overcast
12:35 AM 68.2 °F - 41.2 °F 37% 29.59 in 10.0 mi South 19.6 mph 25.3 mph N/A   Overcast
12:55 AM 68.5 °F - 41.2 °F 37% 29.58 in 10.0 mi South 18.4 mph 32.2 mph N/A   Overcast
1:15 AM 69.1 °F - 41.0 °F 36% 29.56 in 10.0 mi South 16.1 mph 29.9 mph N/A   Overcast
1:35 AM 69.6 °F - 40.5 °F 35% 29.56 in 10.0 mi South 19.6 mph 27.6 mph N/A   Overcast
1:55 AM 69.8 °F - 40.3 °F 34% 29.54 in 10.0 mi South 23.0 mph 31.1 mph N/A   Overcast
2:15 AM 70.0 °F - 39.9 °F 33% 29.52 in 10.0 mi South 21.9 mph 36.8 mph N/A   Overcast
2:35 AM 70.2 °F - 39.6 °F 33% 29.50 in 10.0 mi South 18.4 mph 34.5 mph N/A   Overcast
2:55 AM 70.2 °F - 39.4 °F 33% 29.48 in 10.0 mi South 20.7 mph 34.5 mph N/A   Overcast
3:15 AM 70.0 °F - 39.4 °F 33% 29.46 in 10.0 mi South 21.9 mph 34.5 mph N/A   Overcast
3:35 AM 70.2 °F - 39.4 °F 33% 29.43 in 10.0 mi South 19.6 mph 32.2 mph N/A   Overcast
3:55 AM 70.3 °F - 39.7 °F 33% 29.48 in 10.0 mi WSW 23.0 mph 32.2 mph N/A Rain Rain
4:15 AM 61.2 °F - 48.9 °F 64% 29.51 in 5.0 mi West 16.1 mph 29.9 mph 0.10 in Rain Rain
4:35 AM 56.8 °F - 52.5 °F 85% 29.52 in 7.0 mi WNW 11.5 mph 20.7 mph 0.15 in Rain Rain
4:55 AM 55.6 °F - 51.3 °F 85% 29.55 in 10.0 mi NW 5.8 mph - 0.20 in Rain Rain
5:15 AM 54.9 °F - 50.7 °F 86% 29.58 in 5.0 mi NW 3.5 mph - 0.07 in Rain Heavy Rain
5:35 AM 54.5 °F - 50.9 °F 88% 29.56 in 5.0 mi Calm Calm - 0.14 in Rain Rain
5:55 AM 54.1 °F - 51.1 °F 89% 29.59 in 7.0 mi SSW 4.6 mph - 0.18 in Rain Rain
6:15 AM 54.0 °F - 51.6 °F 92% 29.60 in 7.0 mi South 4.6 mph - 0.04 in Rain Heavy Rain
6:35 AM 53.6 °F - 51.4 °F 92% 29.61 in 10.0 mi South 5.8 mph - 0.07 in Rain Light Rain
7:15 AM 53.6 °F - 51.3 °F 92% 29.60 in 4.0 mi SSE 3.5 mph - 0.03 in Rain Rain
7:35 AM 53.6 °F - 51.3 °F 92% 29.57 in 4.0 mi SE 4.6 mph - 0.08 in Rain Rain
7:55 AM 53.6 °F - 51.6 °F 93% 29.56 in 5.0 mi South 4.6 mph - 0.11 in Rain Rain
8:15 AM 53.6 °F - 51.8 °F 94% 29.55 in 4.0 mi SE 6.9 mph - 0.03 in Rain Rain
8:35 AM 53.8 °F - 51.8 °F 93% 29.56 in 5.0 mi South 6.9 mph - 0.08 in Rain Rain
8:55 AM 54.0 °F - 52.0 °F 93% 29.56 in 5.0 mi South 9.2 mph - 0.13 in Rain Rain
9:15 AM 54.3 °F - 52.0 °F 92% 29.51 in 7.0 mi South 9.2 mph - 0.03 in Rain Light Rain
9:35 AM 54.7 °F - 51.6 °F 89% 29.50 in 10.0 mi SSE 11.5 mph 16.1 mph 0.03 in Rain Light Rain
9:55 AM 55.2 °F - 50.9 °F 85% 29.52 in 10.0 mi South 11.5 mph 16.1 mph 0.04 in   Mostly Cloudy
10:15 AM 55.4 °F - 51.1 °F 85% 29.52 in 10.0 mi South 10.4 mph - N/A Rain Light Rain
10:35 AM 55.2 °F - 48.7 °F 79% 29.54 in 10.0 mi SSW 9.2 mph - N/A   Mostly Cloudy
10:55 AM 55.0 °F - 46.6 °F 73% 29.51 in 10.0 mi SSW 9.2 mph - N/A   Scattered Clouds
11:15 AM 54.7 °F - 45.1 °F 70% 29.50 in 10.0 mi SSW 10.4 mph 16.1 mph N/A   Clear
11:35 AM 54.7 °F - 42.8 °F 64% 29.49 in 10.0 mi SSW 11.5 mph 18.4 mph N/A   Scattered Clouds
11:55 AM 54.7 °F - 40.1 °F 58% 29.48 in 10.0 mi SSW 10.4 mph 17.3 mph N/A   Scattered Clouds
12:15 PM 54.7 °F - 39.0 °F 56% 29.46 in 10.0 mi SSW 10.4 mph 17.3 mph N/A   Scattered Clouds
12:35 PM 55.0 °F - 38.3 °F 53% 29.47 in 10.0 mi SSW 12.7 mph 17.3 mph N/A   Mostly Cloudy
12:55 PM 55.6 °F - 37.8 °F 51% 29.47 in 10.0 mi SSW 15.0 mph 21.9 mph N/A   Mostly Cloudy
1:15 PM 55.8 °F - 37.2 °F 50% 29.47 in 10.0 mi SSW 12.7 mph 21.9 mph N/A   Mostly Cloudy
1:35 PM 55.6 °F - 36.3 °F 48% 29.46 in 10.0 mi SW 11.5 mph 17.3 mph N/A   Overcast
1:55 PM 55.9 °F - 35.4 °F 46% 29.47 in 10.0 mi SW 11.5 mph 20.7 mph N/A   Overcast
2:15 PM 55.8 °F - 34.3 °F 44% 29.46 in 10.0 mi SW 12.7 mph 20.7 mph N/A   Overcast
2:35 PM 55.4 °F - 34.0 °F 44% 29.45 in 10.0 mi SSW 12.7 mph 20.7 mph N/A   Overcast
2:55 PM 55.4 °F - 33.4 °F 43% 29.44 in 10.0 mi SSW 15.0 mph 19.6 mph N/A   Overcast
3:15 PM 55.2 °F - 32.9 °F 43% 29.44 in 10.0 mi SSW 13.8 mph 19.6 mph N/A   Overcast
3:35 PM 55.2 °F - 32.9 °F 43% 29.43 in 10.0 mi SSW 10.4 mph 19.6 mph N/A   Overcast
3:55 PM 54.7 °F - 33.1 °F 44% 29.43 in 10.0 mi SSW 8.1 mph - N/A Rain Rain
4:15 PM 54.3 °F - 33.3 °F 45% 29.43 in 10.0 mi SSW 12.7 mph 18.4 mph N/A   Light Drizzle
4:35 PM 54.3 °F - 32.9 °F 44% 29.43 in 10.0 mi SW 12.7 mph 17.3 mph N/A   Mostly Cloudy
4:55 PM 52.9 °F - 32.2 °F 45% 29.44 in 5.0 mi WSW 24.2 mph 31.1 mph N/A Rain Light Rain
5:15 PM 49.8 °F - 30.9 °F 48% 29.47 in 7.0 mi West 19.6 mph 26.5 mph 0.01 in Rain Light Rain
5:35 PM 47.3 °F - 34.7 °F 62% 29.50 in 7.0 mi West 16.1 mph 25.3 mph 0.02 in Rain Light Rain
5:55 PM 45.5 °F 38.6 °F 37.6 °F 74% 29.52 in 5.0 mi West 16.1 mph 36.8 mph 0.05 in Rain Rain
6:15 PM 44.2 °F 38.0 °F 33.4 °F 66% 29.53 in 10.0 mi West 12.7 mph 25.3 mph N/A   Overcast
6:35 PM 44.1 °F 37.1 °F 26.1 °F 49% 29.55 in 10.0 mi West 15.0 mph 25.3 mph N/A   Overcast
6:55 PM 43.2 °F 34.5 °F 23.7 °F 46% 29.58 in 7.0 mi WNW 20.7 mph 38.0 mph N/A Rain Light Rain
7:15 PM 39.4 °F 31.1 °F 23.2 °F 52% 29.60 in 5.0 mi WNW 15.0 mph 33.4 mph 0.01 in Rain Light Rain
7:35 PM 37.8 °F 30.7 °F 23.2 °F 56% 29.63 in 10.0 mi WNW 10.4 mph 27.6 mph 0.01 in   Light Drizzle
7:55 PM 37.6 °F 27.7 °F 21.2 °F 52% 29.65 in 10.0 mi WNW 18.4 mph 27.6 mph 0.01 in   Overcast
8:15 PM 36.5 °F 26.7 °F 20.1 °F 52% 29.66 in 10.0 mi West 17.3 mph 28.8 mph N/A   Overcast
8:35 PM 35.8 °F 25.7 °F 19.4 °F 51% 29.68 in 7.0 mi West 17.3 mph 25.3 mph N/A   Overcast
8:55 PM 35.1 °F 25.2 °F 17.6 °F 49% 29.69 in 10.0 mi West 16.1 mph 26.5 mph N/A   Overcast
9:15 PM 34.9 °F 24.9 °F 14.5 °F 43% 29.71 in 10.0 mi West 16.1 mph 27.6 mph N/A   Overcast
9:35 PM 34.5 °F 23.1 °F 12.7 °F 41% 29.74 in 10.0 mi West 20.7 mph 32.2 mph N/A   Overcast
9:55 PM 34.2 °F 23.6 °F 11.1 °F 39% 29.75 in 10.0 mi West 17.3 mph 33.4 mph N/A   Overcast
10:15 PM 34.0 °F 24.2 °F 10.9 °F 38% 29.77 in 10.0 mi West 15.0 mph 24.2 mph N/A   Overcast
10:35 PM 33.8 °F 25.8 °F 10.8 °F 38% 29.79 in 10.0 mi West 10.4 mph 28.8 mph N/A   Overcast
10:55 PM 33.3 °F 22.1 °F 9.7 °F 37% 29.81 in 10.0 mi West 18.4 mph 32.2 mph N/A   Overcast
11:15 PM 33.3 °F 24.6 °F 9.0 °F 36% 29.82 in 10.0 mi WNW 11.5 mph 21.9 mph N/A   Overcast
11:35 PM 33.1 °F 23.0 °F 10.0 °F 38% 29.84 in 10.0 mi West 15.0 mph 20.7 mph N/A   Overcast
11:55 PM 32.9 °F 22.8 °F 9.3 °F 37% 29.84 in 10.0 mi West 15.0 mph 23.0 mph N/A   Overcast